Time;durP1;ratioP1;P1;durP2;ratioP2;P2;SDS_P1;SDS_P2;PMS_P1;PMS_P2;Temp;Humidity;BMP_temperature;BMP_pressure;BME280_temperature;BME280_humidity;BME280_pressure;Samples;Min_cycle;Max_cycle;Signal;HPM_P1;HPM_P2
2022/01/27 00:01:02;;;;;;;;;;;20.10;41.50;;;;;;5090393;27;19919;-44
2022/01/27 00:03:32;;;;;;;;;;;20.10;41.50;;;;;;5111790;27;19926;-44
2022/01/27 00:06:05;;;;;;;;;;;20.10;42.10;;;;;;5111762;27;20352;-41
2022/01/27 00:08:40;;;;;;;;;;;20.10;41.50;;;;;;5107667;27;20377;-43
2022/01/27 00:11:11;;;;;;;;;;;20.10;41.50;;;;;;5127085;27;20368;-41
2022/01/27 00:13:44;;;;;;;;;;;20.10;41.50;;;;;;5110993;27;20022;-44
2022/01/27 00:16:14;;;;;;;;;;;20.10;41.50;;;;;;5107446;27;19974;-44
2022/01/27 00:18:41;;;;;;;;;;;20.10;41.50;;;;;;5113458;27;19960;-45
2022/01/27 00:21:10;;;;;;;;;;;20.10;41.50;;;;;;5110811;27;19962;-44
2022/01/27 00:23:37;;;;;;;;;;;20.10;41.50;;;;;;5107899;27;19963;-50
2022/01/27 00:26:04;;;;;;;;;;;20.10;41.60;;;;;;5109852;27;19919;-42
2022/01/27 00:28:30;;;;;;;;;;;20.10;42.10;;;;;;5109375;27;19919;-45
2022/01/27 00:30:57;;;;;;;;;;;20.10;41.50;;;;;;5104140;27;20614;-43
2022/01/27 00:33:24;;;;;;;;;;;20.10;41.50;;;;;;5117723;27;19926;-42
2022/01/27 00:35:51;;;;;;;;;;;20.10;41.50;;;;;;5110628;27;19924;-43
2022/01/27 00:38:19;;;;;;;;;;;20.10;41.50;;;;;;5110896;27;20011;-44
2022/01/27 00:40:46;;;;;;;;;;;20.10;41.50;;;;;;5107938;27;19984;-44
2022/01/27 00:43:13;;;;;;;;;;;20.10;41.50;;;;;;5110345;27;19931;-47
2022/01/27 00:45:40;;;;;;;;;;;20.00;41.40;;;;;;5108815;27;20395;-47
2022/01/27 00:48:06;;;;;;;;;;;20.10;41.50;;;;;;5109851;27;20010;-47
2022/01/27 00:50:35;;;;;;;;;;;20.10;41.60;;;;;;5112168;27;20392;-44
2022/01/27 00:53:04;;;;;;;;;;;20.00;41.40;;;;;;5109754;27;19959;-46
2022/01/27 00:55:39;;;;;;;;;;;20.10;41.50;;;;;;5112928;27;19920;-43
2022/01/27 00:58:18;;;;;;;;;;;20.10;41.50;;;;;;5108656;27;19972;-45
2022/01/27 01:00:54;;;;;;;;;;;20.00;41.40;;;;;;5125541;27;19927;-44
2022/01/27 01:03:27;;;;;;;;;;;20.10;41.50;;;;;;5107581;27;19919;-45
2022/01/27 01:06:12;;;;;;;;;;;20.00;41.40;;;;;;5112459;27;19926;-42
2022/01/27 01:09:28;;;;;;;;;;;20.10;41.50;;;;;;5109308;27;19939;-45
2022/01/27 01:12:10;;;;;;;;;;;20.10;41.50;;;;;;5125341;27;19930;-45
2022/01/27 01:14:45;;;;;;;;;;;20.10;41.50;;;;;;5129506;27;19938;-43
2022/01/27 01:20:06;;;;;;;;;;;20.00;41.40;;;;;;5106001;27;20436;-45
2022/01/27 01:30:52;;;;;;;;;;;20.00;41.40;;;;;;5110423;27;20024;-43
2022/01/27 01:33:26;;;;;;;;;;;20.00;41.40;;;;;;5108933;27;19919;-44
2022/01/27 01:36:02;;;;;;;;;;;20.00;41.40;;;;;;5127702;27;19928;-43
2022/01/27 01:38:30;;;;;;;;;;;20.00;41.40;;;;;;5108475;27;19927;-42
2022/01/27 01:40:57;;;;;;;;;;;20.00;41.40;;;;;;5111861;27;19919;-45
2022/01/27 01:43:25;;;;;;;;;;;20.00;41.40;;;;;;5104668;27;20026;-44
2022/01/27 01:45:52;;;;;;;;;;;20.00;41.40;;;;;;5108839;27;19927;-42
2022/01/27 01:48:19;;;;;;;;;;;20.00;41.40;;;;;;5107486;27;19935;-43
2022/01/27 01:50:45;;;;;;;;;;;20.00;41.40;;;;;;5109059;28;20290;-48
2022/01/27 01:53:13;;;;;;;;;;;20.00;41.40;;;;;;5127757;27;20359;-42
2022/01/27 01:55:40;;;;;;;;;;;20.00;41.40;;;;;;5108579;27;19938;-43
2022/01/27 01:58:06;;;;;;;;;;;20.00;41.40;;;;;;5110397;27;19923;-43
2022/01/27 02:00:34;;;;;;;;;;;20.00;41.40;;;;;;5109946;27;20279;-45
2022/01/27 02:03:01;;;;;;;;;;;20.00;41.40;;;;;;5108131;27;19919;-43
2022/01/27 02:05:33;;;;;;;;;;;20.00;41.40;;;;;;5109268;27;19963;-45
2022/01/27 02:08:14;;;;;;;;;;;20.00;41.30;;;;;;5108751;27;19935;-45
2022/01/27 02:17:58;;;;;;;;;;;20.00;41.30;;;;;;5109231;27;20375;-47
2022/01/27 02:19:21;;;;;;;;;;;20.00;41.40;;;;;;5108741;27;19931;-42
2022/01/27 02:21:49;;;;;;;;;;;20.00;41.30;;;;;;5109191;27;19919;-46
2022/01/27 02:24:16;;;;;;;;;;;20.00;41.40;;;;;;5127986;27;19920;-43
2022/01/27 02:26:43;;;;;;;;;;;20.00;41.30;;;;;;5109135;28;20268;-44
2022/01/27 02:29:09;;;;;;;;;;;20.00;41.40;;;;;;5110130;28;20006;-44
2022/01/27 02:31:36;;;;;;;;;;;20.00;41.30;;;;;;5125746;27;20018;-46
2022/01/27 02:34:05;;;;;;;;;;;20.00;41.40;;;;;;5126104;28;20364;-43
2022/01/27 02:36:32;;;;;;;;;;;20.00;41.30;;;;;;5109304;27;20042;-45
2022/01/27 02:39:00;;;;;;;;;;;20.00;41.40;;;;;;5108004;28;19938;-46
2022/01/27 02:41:27;;;;;;;;;;;20.00;41.40;;;;;;5107880;27;19928;-45
2022/01/27 02:43:55;;;;;;;;;;;20.00;41.40;;;;;;5110007;28;20071;-42
2022/01/27 02:46:22;;;;;;;;;;;20.00;41.40;;;;;;5107122;28;19927;-42
2022/01/27 02:48:49;;;;;;;;;;;20.00;41.40;;;;;;5109343;28;19942;-42
2022/01/27 02:51:16;;;;;;;;;;;20.00;41.30;;;;;;5105275;28;19964;-43
2022/01/27 02:53:43;;;;;;;;;;;20.00;41.40;;;;;;5107012;28;19920;-45
2022/01/27 02:56:11;;;;;;;;;;;20.00;41.40;;;;;;5108679;28;19932;-46
2022/01/27 02:58:38;;;;;;;;;;;20.00;41.30;;;;;;5109217;28;19976;-45
2022/01/27 03:01:05;;;;;;;;;;;20.00;41.40;;;;;;5109964;27;19928;-43
2022/01/27 03:03:32;;;;;;;;;;;20.00;41.40;;;;;;5147844;27;19920;-47
2022/01/27 03:05:58;;;;;;;;;;;20.00;41.40;;;;;;5147288;27;19930;-45
2022/01/27 03:08:25;;;;;;;;;;;20.00;41.40;;;;;;5112285;27;19934;-45
2022/01/27 03:10:53;;;;;;;;;;;20.00;41.30;;;;;;5112968;27;19963;-45
2022/01/27 03:13:21;;;;;;;;;;;20.00;41.30;;;;;;5113154;27;19972;-45
2022/01/27 03:15:48;;;;;;;;;;;20.00;41.50;;;;;;5112048;27;19926;-43
2022/01/27 03:18:15;;;;;;;;;;;20.00;41.30;;;;;;5111909;27;19931;-45
2022/01/27 03:20:42;;;;;;;;;;;20.00;41.30;;;;;;5112642;27;19966;-42
2022/01/27 03:23:09;;;;;;;;;;;20.00;41.30;;;;;;5131611;27;20006;-43
2022/01/27 03:25:36;;;;;;;;;;;20.00;41.30;;;;;;5131329;27;19926;-43
2022/01/27 03:28:03;;;;;;;;;;;19.90;41.20;;;;;;5130559;27;20003;-44
2022/01/27 03:30:31;;;;;;;;;;;20.00;41.30;;;;;;5112433;27;19953;-44
2022/01/27 03:32:58;;;;;;;;;;;20.00;41.30;;;;;;5116403;27;19919;-43
2022/01/27 03:35:25;;;;;;;;;;;20.00;41.30;;;;;;5131007;27;20011;-43
2022/01/27 03:37:51;;;;;;;;;;;19.90;41.20;;;;;;5113467;27;19968;-48
2022/01/27 03:40:18;;;;;;;;;;;20.00;41.30;;;;;;5111279;27;19931;-44
2022/01/27 03:42:51;;;;;;;;;;;19.90;41.20;;;;;;5131129;27;19954;-42
2022/01/27 03:45:17;;;;;;;;;;;20.00;41.30;;;;;;5128351;27;19979;-42
2022/01/27 03:47:46;;;;;;;;;;;20.00;41.30;;;;;;5111779;27;19923;-42
2022/01/27 03:50:13;;;;;;;;;;;19.90;41.20;;;;;;5111515;27;20284;-44
2022/01/27 03:52:39;;;;;;;;;;;20.00;41.30;;;;;;5112100;27;20008;-45
2022/01/27 03:55:07;;;;;;;;;;;19.90;41.20;;;;;;5113820;27;20415;-45
2022/01/27 03:57:33;;;;;;;;;;;19.90;41.20;;;;;;5109916;27;20034;-44
2022/01/27 04:00:00;;;;;;;;;;;20.00;41.20;;;;;;5112411;27;19919;-45
2022/01/27 04:02:27;;;;;;;;;;;19.90;41.30;;;;;;5112559;27;19920;-45
2022/01/27 04:04:55;;;;;;;;;;;20.00;41.20;;;;;;5115644;27;20046;-42
2022/01/27 04:07:22;;;;;;;;;;;19.90;41.20;;;;;;5114669;27;19928;-42
2022/01/27 04:09:48;;;;;;;;;;;19.90;41.20;;;;;;5131852;27;19963;-41
2022/01/27 04:12:15;;;;;;;;;;;19.90;41.20;;;;;;5131787;27;19963;-45
2022/01/27 04:14:42;;;;;;;;;;;20.00;41.20;;;;;;5111588;27;19919;-42
2022/01/27 04:17:08;;;;;;;;;;;19.90;41.10;;;;;;5111053;27;20010;-42
2022/01/27 04:19:35;;;;;;;;;;;20.00;41.20;;;;;;5114310;27;20357;-42
2022/01/27 04:22:04;;;;;;;;;;;20.00;41.20;;;;;;5129572;27;20394;-44
2022/01/27 04:24:31;;;;;;;;;;;19.90;41.10;;;;;;5113690;27;20005;-45
2022/01/27 04:27:03;;;;;;;;;;;20.00;41.20;;;;;;5110101;27;20352;-44
2022/01/27 04:29:33;;;;;;;;;;;19.90;41.10;;;;;;5110790;27;20371;-47
2022/01/27 04:32:01;;;;;;;;;;;19.90;41.10;;;;;;5111178;27;20023;-42
2022/01/27 04:34:28;;;;;;;;;;;20.00;41.80;;;;;;5114501;27;19919;-45
2022/01/27 04:36:56;;;;;;;;;;;19.90;41.10;;;;;;5109502;27;19919;-45
2022/01/27 04:39:31;;;;;;;;;;;19.90;41.10;;;;;;5110159;27;20449;-41
2022/01/27 04:42:04;;;;;;;;;;;19.90;41.10;;;;;;5127811;27;19920;-44
2022/01/27 04:44:36;;;;;;;;;;;19.90;41.10;;;;;;5112304;27;19964;-47
2022/01/27 04:47:08;;;;;;;;;;;19.90;41.10;;;;;;5107525;27;19923;-42
2022/01/27 04:49:35;;;;;;;;;;;19.90;41.10;;;;;;5110066;27;20190;-44
2022/01/27 04:52:02;;;;;;;;;;;20.00;41.20;;;;;;5106625;27;20379;-45
2022/01/27 04:54:35;;;;;;;;;;;19.90;41.10;;;;;;5129705;27;19919;-41
2022/01/27 04:57:04;;;;;;;;;;;19.90;41.10;;;;;;5125815;27;19920;-42
2022/01/27 04:59:37;;;;;;;;;;;19.90;41.10;;;;;;5109257;27;20409;-44
2022/01/27 05:02:07;;;;;;;;;;;19.90;41.10;;;;;;5109880;27;20357;-42
2022/01/27 05:04:39;;;;;;;;;;;19.90;41.10;;;;;;5128255;27;20383;-42
2022/01/27 05:07:06;;;;;;;;;;;19.90;41.10;;;;;;5128902;27;20321;-44
2022/01/27 05:09:35;;;;;;;;;;;19.90;41.10;;;;;;5116209;27;20360;-44
2022/01/27 05:12:11;;;;;;;;;;;19.90;41.10;;;;;;5108410;27;19941;-43
2022/01/27 05:14:38;;;;;;;;;;;19.90;41.00;;;;;;5110413;27;19927;-42
2022/01/27 05:17:04;;;;;;;;;;;19.90;41.00;;;;;;5110488;27;20440;-42
2022/01/27 05:19:31;;;;;;;;;;;19.90;41.00;;;;;;5110620;27;19923;-42
2022/01/27 05:21:58;;;;;;;;;;;19.90;41.10;;;;;;5105032;27;19935;-42
2022/01/27 05:24:24;;;;;;;;;;;19.90;41.00;;;;;;5110284;27;19925;-42
2022/01/27 05:26:53;;;;;;;;;;;19.90;41.10;;;;;;5141373;27;20377;-41
2022/01/27 05:29:19;;;;;;;;;;;19.90;41.10;;;;;;5110498;27;19988;-42
2022/01/27 05:31:46;;;;;;;;;;;19.90;41.00;;;;;;5112321;27;19931;-42
2022/01/27 05:34:13;;;;;;;;;;;19.90;41.10;;;;;;5143634;27;19919;-42
2022/01/27 05:36:39;;;;;;;;;;;19.90;41.10;;;;;;5129526;27;19919;-42
2022/01/27 05:39:06;;;;;;;;;;;19.90;41.10;;;;;;5107565;27;19924;-42
2022/01/27 05:41:33;;;;;;;;;;;19.90;41.00;;;;;;5145763;27;20368;-41
2022/01/27 05:44:02;;;;;;;;;;;19.90;41.00;;;;;;5108307;27;20007;-42
2022/01/27 05:46:29;;;;;;;;;;;19.90;41.00;;;;;;5109884;27;19923;-42
2022/01/27 05:48:55;;;;;;;;;;;19.90;41.00;;;;;;5107276;27;19969;-42
2022/01/27 05:51:22;;;;;;;;;;;19.90;41.00;;;;;;5109968;27;19924;-42
2022/01/27 05:53:49;;;;;;;;;;;19.90;41.00;;;;;;5128905;27;19979;-43
2022/01/27 05:56:16;;;;;;;;;;;19.90;41.10;;;;;;5111888;27;19929;-41
2022/01/27 05:58:43;;;;;;;;;;;19.90;41.00;;;;;;5109481;27;20028;-44
2022/01/27 06:01:11;;;;;;;;;;;19.90;41.00;;;;;;5109994;27;19955;-42
2022/01/27 06:03:38;;;;;;;;;;;19.90;41.00;;;;;;5110271;27;19919;-41
2022/01/27 06:06:05;;;;;;;;;;;19.90;41.00;;;;;;5108097;27;19923;-42
2022/01/27 06:08:32;;;;;;;;;;;19.90;41.00;;;;;;5109851;27;20010;-42
2022/01/27 06:10:59;;;;;;;;;;;19.90;41.00;;;;;;5107627;27;19959;-42
2022/01/27 06:13:25;;;;;;;;;;;19.90;41.00;;;;;;5109815;27;19927;-45
2022/01/27 06:15:52;;;;;;;;;;;19.90;41.00;;;;;;5124605;27;20021;-43
2022/01/27 06:18:20;;;;;;;;;;;19.90;41.00;;;;;;5106855;27;20325;-42
2022/01/27 06:20:48;;;;;;;;;;;19.90;41.00;;;;;;5108415;27;19964;-42
2022/01/27 06:23:14;;;;;;;;;;;19.90;41.00;;;;;;5108044;27;19919;-42
2022/01/27 06:25:42;;;;;;;;;;;19.90;41.00;;;;;;5107758;27;19931;-44
2022/01/27 06:28:08;;;;;;;;;;;19.90;41.00;;;;;;5126888;27;20035;-44
2022/01/27 06:30:35;;;;;;;;;;;19.90;41.00;;;;;;5109533;28;19928;-43
2022/01/27 06:33:02;;;;;;;;;;;19.90;41.00;;;;;;5108715;28;19930;-44
2022/01/27 06:35:30;;;;;;;;;;;19.90;41.00;;;;;;5106839;28;19934;-43
2022/01/27 06:37:57;;;;;;;;;;;19.90;41.00;;;;;;5111510;27;19927;-43
2022/01/27 06:40:24;;;;;;;;;;;19.90;41.00;;;;;;5112310;27;19927;-42
2022/01/27 06:42:50;;;;;;;;;;;19.90;41.00;;;;;;5116180;27;19920;-43
2022/01/27 06:45:17;;;;;;;;;;;19.90;41.00;;;;;;5108354;27;20192;-43
2022/01/27 06:47:44;;;;;;;;;;;19.90;40.90;;;;;;5130312;27;20371;-42
2022/01/27 06:50:11;;;;;;;;;;;19.90;40.90;;;;;;5113618;27;20364;-43
2022/01/27 06:52:41;;;;;;;;;;;19.90;41.00;;;;;;5115643;27;20356;-43
2022/01/27 06:55:08;;;;;;;;;;;19.90;40.90;;;;;;5114018;27;19931;-45
2022/01/27 06:57:35;;;;;;;;;;;19.90;41.00;;;;;;5116693;27;19923;-43
2022/01/27 07:00:01;;;;;;;;;;;19.90;40.90;;;;;;5141362;27;20137;-48
2022/01/27 07:02:28;;;;;;;;;;;19.90;40.90;;;;;;5117959;27;20018;-42
2022/01/27 07:04:56;;;;;;;;;;;19.90;40.90;;;;;;5112228;27;20014;-43
2022/01/27 07:07:23;;;;;;;;;;;19.90;40.90;;;;;;5108325;27;20351;-42
2022/01/27 07:09:51;;;;;;;;;;;19.90;40.90;;;;;;5110516;27;19972;-42
2022/01/27 07:12:18;;;;;;;;;;;19.90;40.90;;;;;;5111170;27;20348;-42
2022/01/27 07:14:44;;;;;;;;;;;19.90;40.90;;;;;;5111153;27;19920;-44
2022/01/27 07:17:13;;;;;;;;;;;19.90;40.90;;;;;;5109519;27;19931;-45
2022/01/27 07:19:40;;;;;;;;;;;19.90;40.90;;;;;;5111872;27;20008;-43
2022/01/27 07:22:06;;;;;;;;;;;19.90;40.90;;;;;;5110723;27;19966;-45
2022/01/27 07:24:33;;;;;;;;;;;19.90;40.90;;;;;;5111693;27;19919;-42
2022/01/27 07:27:01;;;;;;;;;;;19.90;40.90;;;;;;5112536;27;19969;-42
2022/01/27 07:29:28;;;;;;;;;;;19.90;40.90;;;;;;5102743;28;20463;-42
2022/01/27 07:31:55;;;;;;;;;;;19.90;41.00;;;;;;5091797;28;19923;-44
2022/01/27 07:34:22;;;;;;;;;;;19.90;40.90;;;;;;5125407;27;19942;-42
2022/01/27 07:36:54;;;;;;;;;;;19.90;40.90;;;;;;5111901;27;19920;-41
2022/01/27 07:39:21;;;;;;;;;;;19.90;40.90;;;;;;5116758;27;19932;-42
2022/01/27 07:41:47;;;;;;;;;;;19.90;40.90;;;;;;5101743;27;20050;-46
2022/01/27 07:44:15;;;;;;;;;;;19.90;40.90;;;;;;5113166;27;19923;-45
2022/01/27 07:46:42;;;;;;;;;;;19.90;40.90;;;;;;5110044;27;20428;-46
2022/01/27 07:49:09;;;;;;;;;;;19.90;40.80;;;;;;5108556;27;19919;-53
2022/01/27 07:51:36;;;;;;;;;;;19.90;40.60;;;;;;5112492;27;20406;-50
2022/01/27 07:54:02;;;;;;;;;;;19.90;40.60;;;;;;5113593;27;19931;-47
2022/01/27 07:56:29;;;;;;;;;;;19.90;40.50;;;;;;5111127;27;19993;-45
2022/01/27 07:58:56;;;;;;;;;;;19.90;40.40;;;;;;5108105;27;19919;-47
2022/01/27 08:01:24;;;;;;;;;;;19.90;40.20;;;;;;5105745;27;19969;-50
2022/01/27 08:03:51;;;;;;;;;;;19.90;40.30;;;;;;5136122;27;19919;-46
2022/01/27 08:06:18;;;;;;;;;;;19.90;40.20;;;;;;5108848;27;19971;-45
2022/01/27 08:08:45;;;;;;;;;;;19.90;40.20;;;;;;5127850;27;19926;-47
2022/01/27 08:11:11;;;;;;;;;;;19.80;40.10;;;;;;5108888;27;20018;-45
2022/01/27 08:13:38;;;;;;;;;;;19.90;40.10;;;;;;5108408;27;20038;-50
2022/01/27 08:16:05;;;;;;;;;;;19.90;40.10;;;;;;5108619;27;19932;-47
2022/01/27 08:18:33;;;;;;;;;;;19.90;40.10;;;;;;5127246;27;19920;-50
2022/01/27 08:21:00;;;;;;;;;;;19.80;40.10;;;;;;5124352;27;19926;-48
2022/01/27 08:23:27;;;;;;;;;;;19.80;40.10;;;;;;5124471;27;19932;-54
2022/01/27 08:26:02;;;;;;;;;;;19.90;40.10;;;;;;5108816;27;20004;-52
2022/01/27 08:28:34;;;;;;;;;;;19.80;40.00;;;;;;5105493;27;19926;-48
2022/01/27 08:31:02;;;;;;;;;;;19.80;39.90;;;;;;5140732;27;19919;-54
2022/01/27 08:33:30;;;;;;;;;;;19.80;40.00;;;;;;5108575;27;19920;-52
2022/01/27 08:35:58;;;;;;;;;;;19.80;39.90;;;;;;5105843;27;20272;-45
2022/01/27 08:38:25;;;;;;;;;;;19.80;39.90;;;;;;5108294;27;19931;-46
2022/01/27 08:40:52;;;;;;;;;;;19.80;39.90;;;;;;5108532;27;19924;-52
2022/01/27 08:43:19;;;;;;;;;;;19.80;39.90;;;;;;5124916;27;19923;-46
2022/01/27 08:45:46;;;;;;;;;;;19.80;39.90;;;;;;5108052;27;19966;-50
2022/01/27 08:48:17;;;;;;;;;;;19.80;39.90;;;;;;5126556;27;19919;-47
2022/01/27 08:50:50;;;;;;;;;;;19.80;39.90;;;;;;5108223;27;20360;-48
2022/01/27 08:53:18;;;;;;;;;;;19.80;39.80;;;;;;5104895;27;20244;-46
2022/01/27 08:55:46;;;;;;;;;;;19.80;39.90;;;;;;5104500;27;20025;-44
2022/01/27 08:58:12;;;;;;;;;;;19.80;39.90;;;;;;5107317;27;20284;-47
2022/01/27 09:00:39;;;;;;;;;;;19.80;39.90;;;;;;5104980;27;19919;-47
2022/01/27 09:03:06;;;;;;;;;;;19.80;39.80;;;;;;5107643;27;19980;-51
2022/01/27 09:05:33;;;;;;;;;;;19.70;39.60;;;;;;5123928;27;19955;-45
2022/01/27 09:08:00;;;;;;;;;;;19.80;39.70;;;;;;5108140;27;19940;-48
2022/01/27 09:10:32;;;;;;;;;;;19.70;39.60;;;;;;5124500;27;19920;-45
2022/01/27 09:12:59;;;;;;;;;;;19.70;39.60;;;;;;5126629;27;20283;-46
2022/01/27 09:15:25;;;;;;;;;;;19.70;39.60;;;;;;5109700;27;19919;-43
2022/01/27 09:17:52;;;;;;;;;;;19.70;39.80;;;;;;5109892;27;19923;-42
2022/01/27 09:20:19;;;;;;;;;;;19.70;39.80;;;;;;5139461;27;19923;-43
2022/01/27 09:22:47;;;;;;;;;;;19.70;39.90;;;;;;5102057;27;19919;-43
2022/01/27 09:25:18;;;;;;;;;;;19.70;39.90;;;;;;5109798;27;20128;-48
2022/01/27 09:27:47;;;;;;;;;;;19.80;40.00;;;;;;5111522;27;19923;-42
2022/01/27 09:30:15;;;;;;;;;;;19.80;40.00;;;;;;5108909;27;19926;-44
2022/01/27 09:32:42;;;;;;;;;;;19.80;40.10;;;;;;5130295;27;20106;-44
2022/01/27 09:35:09;;;;;;;;;;;19.80;40.10;;;;;;5127520;27;20347;-42
2022/01/27 09:37:36;;;;;;;;;;;19.80;40.10;;;;;;5110630;27;20383;-43
2022/01/27 09:40:03;;;;;;;;;;;19.80;40.10;;;;;;5111447;27;19919;-45
2022/01/27 09:42:33;;;;;;;;;;;19.80;40.20;;;;;;5109079;27;19920;-45
2022/01/27 09:45:03;;;;;;;;;;;19.80;40.20;;;;;;5125123;27;20374;-48
2022/01/27 09:47:32;;;;;;;;;;;19.80;40.20;;;;;;5125922;27;20332;-48
2022/01/27 09:50:09;;;;;;;;;;;19.80;40.20;;;;;;5108995;27;19932;-45
2022/01/27 09:52:35;;;;;;;;;;;19.90;40.30;;;;;;5143485;27;19942;-46
2022/01/27 09:55:02;;;;;;;;;;;19.90;40.30;;;;;;5144668;27;19966;-43
2022/01/27 09:57:29;;;;;;;;;;;19.90;40.30;;;;;;5126423;27;19919;-45
2022/01/27 09:59:55;;;;;;;;;;;19.90;40.40;;;;;;5102619;27;19927;-46
2022/01/27 10:02:26;;;;;;;;;;;19.90;40.40;;;;;;5136171;27;20010;-46
2022/01/27 10:04:53;;;;;;;;;;;19.90;40.30;;;;;;5095438;27;19931;-44
2022/01/27 10:07:22;;;;;;;;;;;19.90;40.40;;;;;;5102676;27;19923;-46
2022/01/27 10:09:56;;;;;;;;;;;19.90;40.40;;;;;;5106234;27;19927;-43
2022/01/27 10:12:24;;;;;;;;;;;19.90;40.40;;;;;;5108667;27;19919;-47
2022/01/27 10:14:57;;;;;;;;;;;19.90;40.40;;;;;;5107019;27;19961;-45
2022/01/27 10:17:25;;;;;;;;;;;19.90;40.50;;;;;;5117626;27;19923;-43
2022/01/27 10:19:53;;;;;;;;;;;20.00;40.60;;;;;;5124778;27;20311;-46
2022/01/27 10:22:20;;;;;;;;;;;20.00;40.60;;;;;;5111386;27;20416;-45
2022/01/27 10:24:46;;;;;;;;;;;20.00;40.60;;;;;;5107244;27;19942;-47
2022/01/27 10:27:17;;;;;;;;;;;20.00;40.60;;;;;;5099328;27;19946;-49
2022/01/27 10:30:01;;;;;;;;;;;20.00;40.60;;;;;;5124609;27;19920;-43
2022/01/27 10:32:38;;;;;;;;;;;20.00;40.60;;;;;;5106710;28;19954;-43
2022/01/27 10:35:05;;;;;;;;;;;20.00;40.60;;;;;;5106567;28;20254;-44
2022/01/27 10:37:37;;;;;;;;;;;20.00;40.60;;;;;;5131832;27;19924;-47
2022/01/27 10:40:05;;;;;;;;;;;20.00;40.60;;;;;;5102856;28;19935;-44
2022/01/27 10:42:32;;;;;;;;;;;20.00;40.70;;;;;;5109049;28;20043;-43
2022/01/27 10:45:06;;;;;;;;;;;20.00;40.70;;;;;;5125421;27;19922;-47
2022/01/27 10:47:38;;;;;;;;;;;20.00;40.70;;;;;;5108099;28;19995;-46
2022/01/27 10:50:10;;;;;;;;;;;20.00;40.80;;;;;;5102872;28;20027;-45
2022/01/27 10:52:42;;;;;;;;;;;20.00;40.70;;;;;;5104141;27;19919;-47
2022/01/27 10:55:10;;;;;;;;;;;20.00;40.80;;;;;;5108373;27;20415;-47
2022/01/27 10:57:36;;;;;;;;;;;20.00;40.80;;;;;;5124669;28;20244;-43
2022/01/27 11:00:08;;;;;;;;;;;20.10;40.90;;;;;;5131543;27;19966;-44
2022/01/27 11:02:47;;;;;;;;;;;20.10;40.90;;;;;;5105131;28;20301;-43
2022/01/27 11:05:18;;;;;;;;;;;20.10;40.90;;;;;;5103490;28;19958;-50
2022/01/27 11:07:45;;;;;;;;;;;20.10;40.90;;;;;;5125211;28;19919;-45
2022/01/27 11:10:12;;;;;;;;;;;20.10;40.90;;;;;;5134009;27;19924;-44
2022/01/27 11:12:39;;;;;;;;;;;20.10;40.90;;;;;;5105650;28;20008;-44
2022/01/27 11:15:06;;;;;;;;;;;20.10;40.90;;;;;;5136983;27;19958;-49
2022/01/27 11:17:36;;;;;;;;;;;20.10;40.90;;;;;;5104296;28;20026;-45
2022/01/27 11:20:22;;;;;;;;;;;20.10;40.90;;;;;;5097145;28;19923;-48
2022/01/27 11:23:22;;;;;;;;;;;20.10;41.00;;;;;;5123878;27;19930;-44
2022/01/27 11:25:52;;;;;;;;;;;20.10;41.00;;;;;;5101804;27;19954;-46
2022/01/27 11:28:19;;;;;;;;;;;20.10;41.00;;;;;;5099919;27;20005;-44
2022/01/27 11:30:49;;;;;;;;;;;20.10;41.00;;;;;;5140586;27;19930;-43
2022/01/27 11:33:16;;;;;;;;;;;20.10;41.00;;;;;;5105548;27;19930;-43
2022/01/27 11:35:43;;;;;;;;;;;20.10;41.00;;;;;;5129479;27;19923;-45
2022/01/27 11:38:12;;;;;;;;;;;20.10;41.00;;;;;;5102761;27;19990;-47
2022/01/27 11:40:39;;;;;;;;;;;20.10;41.00;;;;;;5106526;27;19942;-43
2022/01/27 11:43:07;;;;;;;;;;;20.20;41.20;;;;;;5132336;27;19919;-44
2022/01/27 11:45:35;;;;;;;;;;;20.10;41.10;;;;;;5104448;27;20256;-43
2022/01/27 11:48:07;;;;;;;;;;;20.10;41.10;;;;;;5116626;27;19932;-43
2022/01/27 11:50:36;;;;;;;;;;;20.20;41.20;;;;;;5122935;27;19931;-43
2022/01/27 11:53:03;;;;;;;;;;;20.20;41.20;;;;;;5115137;27;19919;-43
2022/01/27 11:55:44;;;;;;;;;;;20.20;41.20;;;;;;5104102;27;19927;-47
2022/01/27 11:58:17;;;;;;;;;;;20.20;41.20;;;;;;5119901;27;19928;-46
2022/01/27 12:01:02;;;;;;;;;;;20.20;41.20;;;;;;5094966;27;19980;-47
2022/01/27 12:03:29;;;;;;;;;;;20.20;41.20;;;;;;5094080;27;20364;-48
2022/01/27 12:06:12;;;;;;;;;;;20.20;41.20;;;;;;5103665;27;20017;-45
2022/01/27 12:08:38;;;;;;;;;;;20.20;41.20;;;;;;5089834;28;19926;-46
2022/01/27 12:11:10;;;;;;;;;;;20.20;41.30;;;;;;5106302;27;19920;-45
2022/01/27 12:13:55;;;;;;;;;;;20.20;41.20;;;;;;5098507;27;19920;-44
2022/01/27 12:16:52;;;;;;;;;;;20.20;41.20;;;;;;5094840;28;20019;-45
2022/01/27 12:19:19;;;;;;;;;;;20.20;41.30;;;;;;5109882;27;20279;-48
2022/01/27 12:21:55;;;;;;;;;;;20.20;41.20;;;;;;5098402;27;20087;-45
2022/01/27 12:24:27;;;;;;;;;;;20.20;41.30;;;;;;5109488;27;19919;-45
2022/01/27 12:26:56;;;;;;;;;;;20.20;41.20;;;;;;5126457;27;20006;-49
2022/01/27 12:29:23;;;;;;;;;;;20.20;41.30;;;;;;5098265;27;19931;-51
2022/01/27 12:31:50;;;;;;;;;;;20.20;41.30;;;;;;5090898;27;19930;-49
2022/01/27 12:34:17;;;;;;;;;;;20.20;41.30;;;;;;5092512;28;19920;-47
2022/01/27 12:36:53;;;;;;;;;;;20.20;41.30;;;;;;5098346;28;19920;-49
2022/01/27 12:39:20;;;;;;;;;;;20.20;41.20;;;;;;5101720;27;19919;-52
2022/01/27 12:41:48;;;;;;;;;;;20.20;41.20;;;;;;5097035;27;20379;-51
2022/01/27 12:44:16;;;;;;;;;;;20.20;41.20;;;;;;5105980;28;19920;-51
2022/01/27 12:46:58;;;;;;;;;;;20.20;41.20;;;;;;5098135;27;20368;-48
2022/01/27 12:49:41;;;;;;;;;;;20.20;41.10;;;;;;5104274;27;20233;-48
2022/01/27 12:52:09;;;;;;;;;;;20.20;41.20;;;;;;5101066;27;20229;-51
2022/01/27 12:54:36;;;;;;;;;;;20.20;41.10;;;;;;5098997;27;20428;-49
2022/01/27 12:57:03;;;;;;;;;;;20.20;41.10;;;;;;5123137;27;20258;-49
2022/01/27 12:59:32;;;;;;;;;;;20.20;41.10;;;;;;5095846;27;19947;-47
2022/01/27 13:01:59;;;;;;;;;;;20.20;41.10;;;;;;5104876;27;20006;-49
2022/01/27 13:04:26;;;;;;;;;;;20.20;41.10;;;;;;5121793;27;20008;-51
2022/01/27 13:06:53;;;;;;;;;;;20.20;41.20;;;;;;5125860;27;20018;-49
2022/01/27 13:09:20;;;;;;;;;;;20.20;41.10;;;;;;5125866;27;19928;-49
2022/01/27 13:11:49;;;;;;;;;;;20.20;41.10;;;;;;5099032;27;19946;-49
2022/01/27 13:14:15;;;;;;;;;;;20.20;41.10;;;;;;5112845;27;19919;-46
2022/01/27 13:16:48;;;;;;;;;;;20.20;41.10;;;;;;5120876;27;19988;-51
2022/01/27 13:19:22;;;;;;;;;;;20.20;41.70;;;;;;5112057;27;20267;-50
2022/01/27 13:21:59;;;;;;;;;;;20.20;41.10;;;;;;5103733;27;19926;-47
2022/01/27 13:24:27;;;;;;;;;;;20.20;41.10;;;;;;5130667;27;19927;-52
2022/01/27 13:27:03;;;;;;;;;;;20.10;41.00;;;;;;5118738;27;19931;-53
2022/01/27 13:29:30;;;;;;;;;;;20.10;41.00;;;;;;5100997;27;20038;-48
2022/01/27 13:31:58;;;;;;;;;;;20.10;41.00;;;;;;5098033;27;19939;-46
2022/01/27 13:34:25;;;;;;;;;;;20.10;41.00;;;;;;5093416;27;19931;-47
2022/01/27 13:36:59;;;;;;;;;;;20.10;41.00;;;;;;5118227;27;19923;-51
2022/01/27 13:39:36;;;;;;;;;;;20.10;40.90;;;;;;5103901;27;19932;-53
2022/01/27 13:42:05;;;;;;;;;;;20.10;40.90;;;;;;5103660;27;19926;-54
2022/01/27 13:44:32;;;;;;;;;;;20.10;40.90;;;;;;5102186;27;20333;-48
2022/01/27 13:47:02;;;;;;;;;;;20.10;40.90;;;;;;5098291;27;19996;-50
2022/01/27 13:49:32;;;;;;;;;;;20.10;40.90;;;;;;5095572;27;19942;-46
2022/01/27 13:51:59;;;;;;;;;;;20.00;40.90;;;;;;5099727;27;20526;-47
2022/01/27 13:54:34;;;;;;;;;;;20.00;40.80;;;;;;5095574;27;19955;-52
2022/01/27 13:57:03;;;;;;;;;;;20.00;40.80;;;;;;5085279;27;19932;-51
2022/01/27 13:59:41;;;;;;;;;;;20.00;40.80;;;;;;5130266;27;19994;-49
2022/01/27 14:02:28;;;;;;;;;;;20.00;40.80;;;;;;5104355;27;19919;-48
2022/01/27 14:04:55;;;;;;;;;;;20.00;40.80;;;;;;5089293;27;19969;-47
2022/01/27 14:07:26;;;;;;;;;;;20.00;40.70;;;;;;5100611;28;20362;-47
2022/01/27 14:09:53;;;;;;;;;;;20.00;40.70;;;;;;5098590;27;19945;-51
2022/01/27 14:12:24;;;;;;;;;;;20.00;40.70;;;;;;5099829;27;19924;-55
2022/01/27 14:14:52;;;;;;;;;;;20.00;40.60;;;;;;5085025;28;20006;-45
2022/01/27 14:17:21;;;;;;;;;;;20.00;40.70;;;;;;5116186;27;19964;-46
2022/01/27 14:19:48;;;;;;;;;;;20.00;40.80;;;;;;5093327;27;19943;-43
2022/01/27 14:22:16;;;;;;;;;;;20.00;40.80;;;;;;5112695;27;20273;-43
2022/01/27 14:25:01;;;;;;;;;;;20.00;40.80;;;;;;5105384;27;20352;-44
2022/01/27 14:27:31;;;;;;;;;;;20.00;40.90;;;;;;5098823;28;19923;-44
2022/01/27 14:29:58;;;;;;;;;;;20.00;40.90;;;;;;5124127;27;19931;-43
2022/01/27 14:32:26;;;;;;;;;;;20.00;40.90;;;;;;5100678;28;19924;-44
2022/01/27 14:34:52;;;;;;;;;;;20.10;41.00;;;;;;5099346;28;19930;-46
2022/01/27 14:37:19;;;;;;;;;;;20.10;41.00;;;;;;5125703;27;20323;-42
2022/01/27 14:39:47;;;;;;;;;;;20.10;41.10;;;;;;5130039;27;20408;-44
2022/01/27 14:42:16;;;;;;;;;;;20.10;41.10;;;;;;5099278;28;19919;-42
2022/01/27 14:44:44;;;;;;;;;;;20.10;41.20;;;;;;5104234;28;19923;-45